Terminal Aerodrome Forecast
Issued by NWS Portland, ME

Home | Current Version | Previous Version | Text Only | Print | Product List | Glossary On
Versions: 1 2 3 4 5 6 7 8 9 10 11 12 13 14 15 16 17 18 19 20 21 22 23
446
FTUS41 KGYX 111743
TAFPWM
TAF
KPWM 111743Z 1118/1218 30007KT P6SM BKN035
      TEMPO 1118/1121 5SM -SHSN
     FM112100 30012G20KT P6SM SCT040
     FM120500 28007KT P6SM SKC=

USA.gov is the U.S. government's official web portal to all federal, state and local government web resources and services.